createdAt,value
2017-09-23T00:00:00.044Z,17.90
2017-09-23T00:01:00.044Z,20.30
2017-09-23T00:02:00.044Z,17.80
2017-09-23T00:03:00.044Z,17.00
2017-09-23T00:04:00.044Z,27.00
2017-09-23T00:05:00.042Z,19.10
2017-09-23T00:06:00.040Z,16.00
2017-09-23T00:07:00.043Z,15.20
2017-09-23T00:08:00.042Z,20.70
2017-09-23T00:09:00.041Z,16.50
2017-09-23T00:10:00.041Z,16.00
2017-09-23T00:11:00.040Z,13.20
2017-09-23T00:12:00.040Z,28.50
2017-09-23T00:13:00.039Z,27.70
2017-09-23T00:14:00.038Z,21.50
2017-09-23T00:15:00.038Z,15.20
2017-09-23T00:16:00.040Z,15.60
2017-09-23T00:17:00.035Z,18.20
2017-09-23T00:18:00.037Z,20.80
2017-09-23T00:19:00.037Z,17.50
2017-09-23T00:20:00.036Z,21.80
2017-09-23T00:21:00.035Z,32.20
2017-09-23T00:22:00.035Z,18.40
2017-09-23T00:23:00.036Z,19.10
2017-09-23T00:24:00.033Z,14.90
2017-09-23T00:25:00.032Z,16.90
2017-09-23T00:26:00.032Z,21.20
2017-09-23T00:27:00.030Z,21.00
2017-09-23T00:28:00.031Z,18.70
2017-09-23T00:29:00.030Z,23.80
2017-09-23T00:30:00.030Z,15.30
2017-09-23T00:31:00.030Z,18.20
2017-09-23T00:32:00.030Z,19.00
2017-09-23T00:33:00.027Z,23.50
2017-09-23T00:34:00.027Z,12.40
2017-09-23T00:35:00.028Z,16.10
2017-09-23T00:36:00.028Z,18.20
2017-09-23T01:22:44.495Z,28.30
2017-09-23T01:23:44.494Z,24.80
2017-09-23T01:24:44.493Z,33.20
2017-09-23T01:25:44.492Z,26.70
2017-09-23T01:26:44.492Z,27.30
2017-09-23T01:27:44.491Z,29.30
2017-09-23T01:28:44.492Z,33.10
2017-09-23T01:29:44.488Z,28.20
2017-09-23T01:30:44.489Z,28.00
2017-09-23T01:31:44.487Z,25.50
2017-09-23T01:32:44.486Z,33.70
2017-09-23T01:33:44.486Z,35.60
2017-09-23T01:34:44.485Z,37.60
2017-09-23T01:35:44.486Z,34.70
2017-09-23T01:36:44.484Z,25.30
2017-09-23T01:37:44.488Z,28.20
2017-09-23T01:38:44.483Z,30.60
2017-09-23T01:39:44.487Z,37.10
2017-09-23T01:40:44.479Z,32.30
2017-09-23T01:41:44.478Z,30.20
2017-09-23T01:42:44.478Z,41.30
2017-09-23T01:43:44.477Z,35.50
2017-09-23T01:44:44.475Z,30.20
2017-09-23T01:45:44.474Z,34.30
2017-09-23T01:46:44.474Z,34.10
2017-09-23T01:47:44.475Z,29.60
2017-09-23T01:48:44.472Z,35.20
2017-09-23T01:49:44.471Z,34.30
2017-09-23T01:50:44.472Z,25.40
2017-09-23T01:51:44.471Z,27.20
2017-09-23T01:52:44.471Z,32.90
2017-09-23T01:53:44.469Z,40.30
2017-09-23T01:54:44.467Z,30.40
2017-09-23T01:55:44.467Z,38.70
2017-09-23T01:56:44.466Z,36.50
2017-09-23T01:57:44.464Z,34.50
2017-09-23T01:58:44.464Z,34.10
2017-09-23T01:59:44.463Z,42.20
2017-09-23T02:00:44.462Z,35.60
2017-09-23T02:01:44.464Z,37.00
2017-09-23T02:02:44.460Z,34.50
2017-09-23T02:03:44.459Z,28.20
2017-09-23T02:04:44.458Z,37.40
2017-09-23T02:05:44.457Z,26.80
2017-09-23T02:06:44.457Z,34.30
2017-09-23T02:07:44.456Z,34.40
2017-09-23T02:08:44.454Z,38.20
2017-09-23T02:09:44.453Z,27.90
2017-09-23T02:10:44.453Z,31.10
2017-09-23T02:11:44.453Z,38.90
2017-09-23T02:12:44.450Z,39.30
2017-09-23T02:13:44.451Z,35.70
2017-09-23T02:14:44.453Z,38.10
2017-09-23T02:15:44.449Z,36.70
2017-09-23T02:16:44.447Z,35.10
2017-09-23T02:17:44.447Z,32.20
2017-09-23T02:18:44.445Z,34.70
2017-09-23T02:19:44.445Z,42.20
2017-09-23T02:20:44.443Z,25.80
2017-09-23T02:21:44.448Z,33.80
2017-09-23T02:22:44.441Z,37.50
2017-09-23T02:23:44.441Z,40.90
2017-09-23T02:24:44.438Z,25.90
2017-09-23T02:25:44.438Z,34.50
2017-09-23T02:26:44.437Z,35.50
2017-09-23T02:27:44.436Z,31.80
2017-09-23T02:28:44.435Z,26.70
2017-09-23T02:29:44.434Z,42.60
2017-09-23T02:30:44.438Z,32.40
2017-09-23T02:31:44.435Z,32.30
2017-09-23T02:32:44.430Z,43.90
2017-09-23T02:33:44.430Z,39.60
2017-09-23T02:34:44.430Z,31.50
2017-09-23T02:35:44.430Z,39.70
2017-09-23T02:36:44.427Z,27.70
2017-09-23T02:37:44.426Z,31.00
2017-09-23T02:38:44.425Z,25.60
2017-09-23T02:39:44.427Z,43.10
2017-09-23T02:40:44.421Z,29.60
2017-09-23T02:41:44.423Z,22.70
2017-09-23T02:42:44.420Z,24.60
2017-09-23T02:43:44.421Z,44.00
2017-09-23T02:44:44.418Z,44.30
2017-09-23T02:45:44.417Z,35.70
2017-09-23T02:46:44.417Z,40.40
2017-09-23T02:47:44.415Z,35.10
2017-09-23T02:48:44.413Z,30.10
2017-09-23T02:49:44.414Z,29.30
2017-09-23T02:50:44.443Z,33.20
2017-09-23T02:51:44.411Z,40.70
2017-09-23T02:52:44.410Z,34.90
2017-09-23T02:53:44.410Z,25.50
2017-09-23T02:54:44.408Z,26.10
2017-09-23T02:55:44.407Z,31.80
2017-09-23T02:56:44.405Z,32.50
2017-09-23T02:57:44.405Z,25.20
2017-09-23T02:58:44.405Z,28.60
2017-09-23T02:59:44.402Z,26.70
2017-09-23T03:00:44.399Z,24.80
2017-09-23T03:01:44.399Z,23.40
2017-09-23T03:02:44.399Z,29.90
2017-09-23T03:03:44.397Z,36.50
2017-09-23T03:04:44.397Z,29.00
2017-09-23T03:05:44.399Z,27.80
2017-09-23T03:06:44.394Z,36.20
2017-09-23T03:07:44.393Z,28.50
2017-09-23T03:08:44.402Z,34.20
2017-09-23T03:09:44.391Z,34.70
2017-09-23T03:10:44.390Z,23.50
2017-09-23T03:11:44.395Z,33.80
2017-09-23T03:12:44.386Z,31.60
2017-09-23T03:13:44.386Z,34.90
2017-09-23T03:14:44.386Z,23.30
2017-09-23T03:15:44.385Z,33.10
2017-09-23T03:16:44.383Z,26.90
2017-09-23T03:17:44.383Z,30.70
2017-09-23T03:18:44.380Z,36.30
2017-09-23T03:19:44.380Z,33.20
2017-09-23T03:20:44.378Z,42.80
2017-09-23T03:21:44.377Z,36.10
2017-09-23T03:22:44.376Z,37.00
2017-09-23T03:23:44.375Z,34.20
2017-09-23T03:24:44.374Z,28.50
2017-09-23T03:25:44.373Z,31.30
2017-09-23T03:26:44.372Z,41.00
2017-09-23T03:27:44.371Z,29.00
2017-09-23T03:28:44.369Z,34.20
2017-09-23T03:29:44.368Z,34.40
2017-09-23T03:30:44.367Z,29.70
2017-09-23T03:31:44.366Z,31.80
2017-09-23T03:32:44.364Z,31.10
2017-09-23T03:33:44.363Z,38.30
2017-09-23T03:34:44.362Z,38.40
2017-09-23T03:35:44.361Z,40.30
2017-09-23T03:36:44.359Z,39.10
2017-09-23T03:37:44.363Z,53.30
2017-09-23T03:38:44.359Z,27.30
2017-09-23T03:39:44.357Z,36.50
2017-09-23T03:40:44.354Z,27.90
2017-09-23T03:41:44.354Z,28.30
2017-09-23T03:42:44.352Z,31.00
2017-09-23T03:43:44.353Z,31.30
2017-09-23T03:44:44.349Z,28.20
2017-09-23T03:45:44.349Z,29.40
2017-09-23T03:46:44.348Z,33.20
2017-09-23T03:47:44.347Z,38.70
2017-09-23T03:48:44.345Z,28.80
2017-09-23T03:49:44.344Z,30.60
2017-09-23T03:50:44.343Z,33.40
2017-09-23T03:51:44.344Z,36.10
2017-09-23T03:52:44.342Z,28.60
2017-09-23T03:53:44.340Z,30.50
2017-09-23T03:54:44.338Z,28.50
2017-09-23T03:55:44.340Z,32.60
2017-09-23T03:56:44.335Z,36.00
2017-09-23T03:57:44.335Z,26.70
2017-09-23T03:58:44.333Z,33.80
2017-09-23T03:59:44.332Z,34.70
2017-09-23T04:00:44.331Z,29.70
2017-09-23T04:01:44.329Z,37.70
2017-09-23T04:02:44.330Z,34.90
2017-09-23T04:03:44.328Z,24.00
2017-09-23T04:04:44.326Z,30.60
2017-09-23T04:05:44.325Z,34.20
2017-09-23T04:06:44.324Z,32.50
2017-09-23T04:07:44.323Z,36.50
2017-09-23T04:08:44.320Z,28.60
2017-09-23T04:09:44.318Z,44.90
2017-09-23T04:10:44.318Z,36.50
2017-09-23T04:11:44.317Z,38.90
2017-09-23T04:12:44.320Z,25.30
2017-09-23T04:13:44.320Z,32.10
2017-09-23T04:14:44.312Z,24.90
2017-09-23T04:15:44.312Z,34.20
2017-09-23T04:16:44.308Z,28.30
2017-09-23T04:17:44.309Z,34.40
2017-09-23T04:18:44.307Z,41.30
2017-09-23T04:19:44.307Z,25.70
2017-09-23T04:20:44.304Z,25.50
2017-09-23T04:21:44.303Z,29.60
2017-09-23T04:22:44.301Z,31.70
2017-09-23T04:23:44.299Z,30.70
2017-09-23T04:24:44.298Z,33.20
2017-09-23T04:25:44.297Z,23.20
2017-09-23T04:26:44.296Z,25.60
2017-09-23T04:27:44.297Z,24.80
2017-09-23T04:28:44.293Z,21.00
2017-09-23T04:29:44.291Z,33.80
2017-09-23T04:30:44.289Z,28.60
2017-09-23T04:31:44.288Z,24.50
2017-09-23T04:32:44.288Z,27.80
2017-09-23T04:33:44.285Z,23.10
2017-09-23T04:34:44.283Z,25.40
2017-09-23T04:35:44.284Z,27.50
2017-09-23T04:36:44.280Z,33.30
2017-09-23T04:37:44.278Z,25.90
2017-09-23T04:38:44.278Z,33.00
2017-09-23T04:39:44.276Z,32.00
2017-09-23T04:40:44.275Z,24.80
2017-09-23T04:41:44.274Z,23.60
2017-09-23T04:42:44.271Z,33.60
2017-09-23T04:43:44.274Z,32.10
2017-09-23T04:44:44.267Z,26.70
2017-09-23T04:45:44.267Z,23.20
2017-09-23T04:46:44.265Z,32.70
2017-09-23T04:47:44.265Z,22.00
2017-09-23T04:48:44.262Z,26.40
2017-09-23T04:49:44.260Z,29.40
2017-09-23T04:50:44.262Z,20.00
2017-09-23T04:51:44.261Z,22.50
2017-09-23T04:52:44.255Z,19.40
2017-09-23T04:53:44.253Z,21.10
2017-09-23T04:54:44.254Z,25.00
2017-09-23T04:55:44.252Z,17.40
2017-09-23T04:56:44.247Z,17.30
2017-09-23T04:57:44.248Z,21.20
2017-09-23T04:58:44.246Z,23.20
2017-09-23T04:59:44.244Z,19.80
2017-09-23T05:00:44.241Z,17.90
2017-09-23T05:01:44.242Z,20.50
2017-09-23T05:02:44.239Z,14.30
2017-09-23T05:03:44.238Z,18.30
2017-09-23T05:04:44.236Z,20.50
2017-09-23T05:05:44.235Z,19.70
2017-09-23T05:06:44.234Z,16.00
2017-09-23T05:07:44.231Z,29.00
2017-09-23T05:08:44.229Z,19.30
2017-09-23T05:09:44.229Z,14.40
2017-09-23T05:10:44.227Z,24.80
2017-09-23T05:11:44.224Z,11.80
2017-09-23T05:12:44.221Z,16.50
2017-09-23T05:13:44.220Z,16.60
2017-09-23T05:14:44.219Z,16.20
2017-09-23T05:15:44.219Z,11.50
2017-09-23T05:16:44.215Z,16.70
2017-09-23T05:17:44.212Z,13.10
2017-09-23T05:18:44.212Z,16.00
2017-09-23T05:19:44.210Z,12.80
2017-09-23T05:20:44.207Z,19.40
2017-09-23T05:21:44.205Z,13.70
2017-09-23T05:22:44.204Z,17.10
2017-09-23T05:23:44.205Z,11.00
2017-09-23T05:24:44.201Z,13.90
2017-09-23T05:25:44.199Z,14.00
2017-09-23T05:26:44.199Z,21.40
2017-09-23T05:27:44.195Z,20.30
2017-09-23T05:28:44.192Z,17.90
2017-09-23T05:29:44.193Z,15.00
2017-09-23T05:30:44.191Z,20.20
2017-09-23T05:31:44.187Z,19.00
2017-09-23T05:32:44.185Z,22.50
2017-09-23T05:33:44.184Z,19.40
2017-09-23T05:34:44.182Z,16.30
2017-09-23T05:35:44.180Z,11.20
2017-09-23T05:36:44.178Z,12.80
2017-09-23T05:37:44.175Z,17.00
2017-09-23T05:38:44.174Z,25.70
2017-09-23T05:39:44.172Z,18.10
2017-09-23T05:40:44.170Z,13.30
2017-09-23T05:41:44.169Z,13.60
2017-09-23T05:42:44.166Z,14.10
2017-09-23T05:43:44.166Z,18.70
2017-09-23T05:44:44.161Z,18.80
2017-09-23T05:45:44.160Z,19.60
2017-09-23T05:46:44.158Z,16.60
2017-09-23T05:47:44.158Z,18.50
2017-09-23T05:48:44.154Z,17.80
2017-09-23T05:49:44.152Z,14.20
2017-09-23T05:50:44.154Z,16.80
2017-09-23T05:51:44.150Z,18.30
2017-09-23T05:52:44.146Z,19.50
2017-09-23T05:53:44.144Z,17.70
2017-09-23T05:54:44.143Z,17.20
2017-09-23T05:55:44.141Z,16.20
2017-09-23T05:56:44.139Z,18.10
2017-09-23T05:57:44.166Z,14.00
2017-09-23T05:58:44.136Z,13.80
2017-09-23T05:59:44.135Z,23.40
2017-09-23T06:00:44.132Z,15.80
2017-09-23T06:01:44.131Z,17.50
2017-09-23T06:02:44.129Z,10.70
2017-09-23T06:03:44.126Z,17.40
2017-09-23T06:04:44.124Z,9.00
2017-09-23T06:05:44.124Z,12.30
2017-09-23T06:06:44.120Z,14.00
2017-09-23T06:07:44.118Z,14.00
2017-09-23T06:08:44.117Z,6.80
2017-09-23T06:09:44.115Z,14.00
2017-09-23T06:10:44.113Z,16.70
2017-09-23T06:11:44.111Z,17.60
2017-09-23T06:12:44.108Z,13.10
2017-09-23T06:13:44.107Z,10.50
2017-09-23T06:14:44.110Z,11.70
2017-09-23T06:15:44.104Z,17.20
2017-09-23T06:16:44.101Z,10.60
2017-09-23T06:17:44.099Z,9.70
2017-09-23T06:18:44.098Z,9.70
2017-09-23T06:19:44.098Z,10.40
2017-09-23T06:20:44.094Z,14.10
2017-09-23T06:21:44.092Z,14.20
2017-09-23T06:22:44.091Z,9.40
2017-09-23T06:23:44.089Z,11.50
2017-09-23T06:24:44.087Z,6.80
2017-09-23T06:25:44.085Z,9.00
2017-09-23T06:26:44.084Z,10.80
2017-09-23T06:27:44.082Z,9.20
2017-09-23T06:28:44.081Z,19.00
2017-09-23T06:29:44.079Z,9.50
2017-09-23T06:30:44.077Z,6.00
2017-09-23T06:31:44.076Z,13.10
2017-09-23T06:32:44.073Z,9.20
2017-09-23T06:33:44.072Z,5.40
2017-09-23T06:34:44.069Z,5.40
2017-09-23T06:35:44.069Z,12.30
2017-09-23T06:36:44.068Z,9.10
2017-09-23T06:37:44.065Z,9.80
2017-09-23T06:38:44.064Z,9.80
2017-09-23T06:39:44.064Z,7.80
2017-09-23T06:40:44.065Z,7.70
2017-09-23T06:41:44.059Z,9.20
2017-09-23T06:42:44.057Z,8.50
2017-09-23T06:43:44.063Z,9.70
2017-09-23T06:44:44.053Z,8.20
2017-09-23T06:45:44.053Z,6.60
2017-09-23T06:46:44.051Z,10.30
2017-09-23T06:47:44.049Z,5.80
2017-09-23T06:48:44.047Z,10.60
2017-09-23T06:49:44.046Z,9.00
2017-09-23T06:50:44.048Z,10.80
2017-09-23T06:51:44.041Z,8.50
2017-09-23T06:52:44.041Z,5.70
2017-09-23T06:53:44.039Z,9.10
2017-09-23T06:54:44.038Z,10.70
2017-09-23T06:55:44.040Z,12.80
2017-09-23T06:56:44.034Z,8.60
2017-09-23T06:57:44.032Z,6.60
2017-09-23T06:58:44.037Z,13.00
2017-09-23T06:59:44.031Z,10.70
2017-09-23T07:00:44.029Z,7.10
2017-09-23T07:01:44.028Z,8.90
2017-09-23T07:02:44.026Z,8.80
2017-09-23T07:03:44.030Z,3.70
2017-09-23T07:04:44.023Z,11.00
2017-09-23T07:05:44.021Z,13.60
2017-09-23T07:06:44.021Z,5.20
2017-09-23T07:07:44.020Z,6.00
2017-09-23T07:08:44.019Z,7.40
2017-09-23T07:09:44.017Z,9.50
2017-09-23T07:10:44.014Z,6.60
2017-09-23T07:11:44.015Z,6.20
2017-09-23T07:12:44.012Z,6.80
2017-09-23T07:13:44.012Z,8.50
2017-09-23T07:14:44.014Z,9.30
2017-09-23T07:15:44.009Z,8.70
2017-09-23T07:16:44.012Z,8.00
2017-09-23T07:17:44.006Z,6.70
2017-09-23T07:18:44.005Z,9.90
2017-09-23T07:19:44.004Z,11.60
2017-09-23T07:20:44.002Z,7.90
2017-09-23T07:21:44.002Z,8.00
2017-09-23T07:22:43.999Z,8.00
2017-09-23T07:23:44.000Z,8.60
2017-09-23T07:24:43.997Z,12.40
2017-09-23T07:25:43.996Z,9.00
2017-09-23T07:26:43.995Z,6.10
2017-09-23T07:27:43.994Z,7.40
2017-09-23T07:28:43.992Z,12.80
2017-09-23T07:29:43.989Z,10.30
2017-09-23T07:30:43.990Z,8.70
2017-09-23T07:31:43.989Z,10.70
2017-09-23T07:32:43.986Z,10.70
2017-09-23T07:33:43.988Z,14.60
2017-09-23T07:34:43.985Z,6.30
2017-09-23T07:35:43.984Z,6.40
2017-09-23T07:36:43.983Z,11.90
2017-09-23T07:37:43.982Z,10.10
2017-09-23T07:38:43.982Z,7.20
2017-09-23T07:39:43.980Z,6.90
2017-09-23T07:40:43.978Z,10.20
2017-09-23T07:41:43.977Z,6.60
2017-09-23T07:42:43.977Z,10.20
2017-09-23T07:43:43.976Z,12.40
2017-09-23T07:44:43.973Z,8.50
2017-09-23T07:45:43.973Z,11.20
2017-09-23T07:46:43.973Z,11.50
2017-09-23T07:47:43.972Z,8.30
2017-09-23T07:48:43.970Z,5.10
2017-09-23T07:49:43.969Z,8.40
2017-09-23T07:50:43.968Z,7.60
2017-09-23T07:51:43.968Z,6.40
2017-09-23T07:52:43.964Z,5.70
2017-09-23T07:53:43.970Z,5.70
2017-09-23T07:54:43.963Z,8.50
2017-09-23T07:55:43.963Z,6.60
2017-09-23T07:56:43.964Z,8.20
2017-09-23T07:57:43.960Z,8.30
2017-09-23T07:58:43.958Z,8.20
2017-09-23T07:59:43.958Z,8.90
2017-09-23T08:00:43.957Z,7.00
2017-09-23T08:01:43.956Z,4.40
2017-09-23T08:02:43.955Z,8.60
2017-09-23T08:03:43.958Z,5.60
2017-09-23T08:04:43.955Z,5.70
2017-09-23T08:05:43.953Z,7.20
2017-09-23T08:06:43.953Z,9.70
2017-09-23T08:07:43.953Z,7.20
2017-09-23T08:08:43.952Z,10.90
2017-09-23T08:09:43.953Z,6.00
2017-09-23T08:10:43.950Z,7.70
2017-09-23T08:11:43.951Z,3.60
2017-09-23T08:12:43.950Z,9.80
2017-09-23T08:13:43.950Z,7.60
2017-09-23T08:14:43.951Z,6.70
2017-09-23T08:15:43.953Z,5.50
2017-09-23T08:16:43.951Z,4.40
2017-09-23T08:17:43.957Z,3.40
2017-09-23T08:18:43.951Z,5.10
2017-09-23T08:19:43.952Z,5.30
2017-09-23T08:20:43.950Z,10.10
2017-09-23T08:21:43.950Z,6.30
2017-09-23T08:22:43.951Z,4.10
2017-09-23T08:23:43.951Z,4.30
2017-09-23T08:24:43.952Z,7.40
2017-09-23T08:25:43.949Z,5.80
2017-09-23T08:26:43.964Z,5.70
2017-09-23T08:27:43.953Z,6.60
2017-09-23T08:28:43.953Z,6.80
2017-09-23T08:29:43.954Z,3.70
2017-09-23T08:30:43.958Z,3.40
2017-09-23T08:31:43.954Z,6.40
2017-09-23T08:32:43.954Z,6.30
2017-09-23T08:33:43.954Z,5.20
2017-09-23T08:34:43.955Z,4.50
2017-09-23T08:35:43.957Z,9.30
2017-09-23T08:36:43.955Z,4.30
2017-09-23T08:37:43.956Z,4.30
2017-09-23T08:38:43.958Z,3.00
2017-09-23T08:39:43.958Z,6.50
2017-09-23T08:40:43.957Z,5.70
2017-09-23T08:41:43.959Z,5.50
2017-09-23T08:42:43.960Z,3.80
2017-09-23T08:43:43.961Z,7.60
2017-09-23T08:44:43.961Z,5.60
2017-09-23T08:45:43.963Z,7.30
2017-09-23T08:46:43.962Z,9.40
2017-09-23T08:47:43.964Z,3.80
2017-09-23T08:48:43.965Z,3.40
2017-09-23T08:49:43.966Z,4.40
2017-09-23T08:50:43.968Z,7.20
2017-09-23T08:51:43.969Z,3.80
2017-09-23T08:52:43.969Z,3.90
2017-09-23T08:53:43.971Z,7.10
2017-09-23T08:54:43.973Z,5.80
2017-09-23T08:55:43.975Z,4.10
2017-09-23T08:56:43.976Z,5.10
2017-09-23T08:57:43.976Z,5.20
2017-09-23T08:58:43.980Z,3.70
2017-09-23T08:59:43.982Z,2.80
2017-09-23T09:00:43.982Z,7.20
2017-09-23T09:01:43.982Z,7.70
2017-09-23T09:02:43.993Z,5.30
2017-09-23T09:03:43.988Z,4.90
2017-09-23T09:04:43.989Z,6.70
2017-09-23T09:05:43.991Z,3.10
2017-09-23T09:06:43.993Z,4.20
2017-09-23T09:07:43.996Z,8.80
2017-09-23T09:08:43.997Z,3.60
2017-09-23T09:09:43.999Z,3.80
2017-09-23T09:10:44.003Z,3.20
2017-09-23T09:11:44.003Z,4.40
2017-09-23T09:12:44.005Z,3.10
2017-09-23T09:13:44.006Z,2.90
2017-09-23T09:14:44.009Z,3.20
2017-09-23T09:15:44.011Z,5.00
2017-09-23T09:16:44.012Z,5.20
2017-09-23T09:17:44.020Z,4.90
2017-09-23T09:18:44.016Z,5.30
2017-09-23T09:19:44.017Z,5.00
2017-09-23T09:20:44.019Z,3.30
2017-09-23T09:21:44.019Z,3.40
2017-09-23T09:22:44.022Z,5.00
2017-09-23T09:23:44.022Z,5.30
2017-09-23T09:24:44.024Z,7.90
2017-09-23T09:25:44.025Z,3.90
2017-09-23T09:26:44.028Z,5.00
2017-09-23T09:27:44.028Z,4.60
2017-09-23T09:28:44.034Z,4.30
2017-09-23T09:29:44.030Z,3.50
2017-09-23T09:30:44.032Z,3.60
2017-09-23T09:31:44.034Z,6.00
2017-09-23T09:32:44.035Z,5.80
2017-09-23T09:33:44.040Z,5.90
2017-09-23T09:34:44.037Z,4.20
2017-09-23T09:35:44.039Z,2.90
2017-09-23T09:36:44.038Z,8.10
2017-09-23T09:37:44.041Z,4.20
2017-09-23T09:38:44.041Z,2.80
2017-09-23T09:39:44.044Z,13.90
2017-09-23T09:40:44.044Z,7.70
2017-09-23T09:41:44.046Z,7.90
2017-09-23T09:42:44.048Z,4.80
2017-09-23T09:43:44.048Z,4.80
2017-09-23T09:44:44.049Z,3.50
2017-09-23T09:45:44.051Z,3.70
2017-09-23T09:46:44.052Z,2.80
2017-09-23T09:47:44.055Z,3.40
2017-09-23T09:48:44.053Z,3.70
2017-09-23T09:49:44.053Z,5.60
2017-09-23T09:50:44.056Z,3.90
2017-09-23T09:51:44.057Z,3.30
2017-09-23T09:52:44.059Z,3.90
2017-09-23T09:53:44.059Z,3.60
2017-09-23T09:54:44.061Z,4.60
2017-09-23T09:55:44.062Z,7.30
2017-09-23T09:56:44.070Z,4.10
2017-09-23T09:57:44.065Z,4.20
2017-09-23T09:58:44.067Z,4.10
2017-09-23T09:59:44.069Z,4.50
2017-09-23T10:00:44.069Z,5.20
2017-09-23T10:01:44.070Z,6.30
2017-09-23T10:02:44.073Z,3.90
2017-09-23T10:03:44.075Z,7.20
2017-09-23T10:04:44.084Z,3.20
2017-09-23T10:05:44.079Z,7.70
2017-09-23T10:06:44.080Z,5.60
2017-09-23T10:07:44.083Z,5.60
2017-09-23T10:08:44.083Z,4.30
2017-09-23T10:09:44.085Z,5.20
2017-09-23T10:10:44.089Z,3.60
2017-09-23T10:11:44.092Z,4.50
2017-09-23T10:12:44.092Z,4.20
2017-09-23T10:13:44.094Z,7.20
2017-09-23T10:14:44.097Z,8.30
2017-09-23T10:15:44.100Z,3.90
2017-09-23T10:16:44.101Z,5.30
2017-09-23T10:17:44.104Z,3.60
2017-09-23T10:18:44.107Z,4.60
2017-09-23T10:19:44.112Z,5.10
2017-09-23T10:20:44.112Z,4.60
2017-09-23T10:21:44.115Z,3.80
2017-09-23T10:22:44.120Z,3.80
2017-09-23T10:23:44.121Z,6.20
2017-09-23T10:24:44.122Z,5.60
2017-09-23T10:25:44.126Z,4.70
2017-09-23T10:26:44.130Z,6.00
2017-09-23T10:27:44.139Z,4.20
2017-09-23T10:28:44.134Z,4.80
2017-09-23T10:29:44.138Z,5.90
2017-09-23T10:30:44.140Z,6.00
2017-09-23T10:31:44.142Z,5.40
2017-09-23T10:32:44.147Z,6.00
2017-09-23T10:33:44.147Z,6.20
2017-09-23T10:34:44.152Z,6.60
2017-09-23T10:35:44.154Z,6.80
2017-09-23T10:36:44.155Z,6.50
2017-09-23T10:37:44.159Z,4.60
2017-09-23T10:38:44.162Z,5.50
2017-09-23T10:39:44.165Z,8.90
2017-09-23T10:40:44.169Z,3.80
2017-09-23T10:41:44.169Z,8.40
2017-09-23T10:42:44.172Z,4.90
2017-09-23T10:43:44.176Z,3.80
2017-09-23T10:44:44.180Z,4.50
2017-09-23T10:45:44.181Z,3.50
2017-09-23T10:46:44.183Z,5.50
2017-09-23T10:47:44.186Z,7.60
2017-09-23T10:48:44.191Z,9.10
2017-09-23T10:49:44.191Z,13.90
2017-09-23T10:50:44.194Z,5.60
2017-09-23T10:51:44.196Z,5.60
2017-09-23T10:52:44.198Z,4.70
2017-09-23T10:53:44.200Z,6.40
2017-09-23T10:54:44.204Z,6.30
2017-09-23T10:55:44.207Z,6.00
2017-09-23T10:56:44.209Z,8.60
2017-09-23T10:57:44.211Z,5.90
2017-09-23T10:58:44.216Z,6.30
2017-09-23T10:59:44.247Z,5.40
2017-09-23T11:00:44.221Z,5.40
2017-09-23T11:01:44.225Z,5.20
2017-09-23T11:02:44.226Z,8.00
2017-09-23T11:03:44.230Z,4.70
2017-09-23T11:04:44.236Z,6.60
2017-09-23T11:05:44.238Z,5.20
2017-09-23T11:06:44.241Z,5.20
2017-09-23T11:07:44.243Z,6.20
2017-09-23T11:08:44.251Z,6.20
2017-09-23T11:09:44.245Z,9.50
2017-09-23T11:10:44.249Z,7.50
2017-09-23T11:11:44.252Z,7.20
2017-09-23T11:12:44.255Z,7.30
2017-09-23T11:13:44.259Z,5.20
2017-09-23T11:14:44.261Z,6.20
2017-09-23T11:15:44.265Z,6.40
2017-09-23T11:16:44.267Z,6.50
2017-09-23T11:17:44.270Z,5.20
2017-09-23T11:18:44.272Z,6.10
2017-09-23T11:19:44.277Z,9.20
2017-09-23T11:20:44.278Z,6.00
2017-09-23T11:21:44.282Z,8.00
2017-09-23T11:22:44.284Z,7.50
2017-09-23T11:23:44.287Z,7.00
2017-09-23T11:24:44.290Z,5.90
2017-09-23T11:25:44.293Z,5.10
2017-09-23T11:26:44.296Z,5.80
2017-09-23T11:27:44.300Z,5.90
2017-09-23T11:28:44.301Z,6.50
2017-09-23T11:29:44.305Z,7.90
2017-09-23T11:30:44.309Z,7.90
2017-09-23T11:31:44.313Z,5.10
2017-09-23T11:32:44.313Z,7.80
2017-09-23T11:33:44.318Z,6.10
2017-09-23T11:34:44.320Z,5.30
2017-09-23T11:35:44.325Z,7.00
2017-09-23T11:36:44.325Z,4.90
2017-09-23T11:37:44.328Z,14.00
2017-09-23T11:38:44.331Z,6.60
2017-09-23T11:39:44.335Z,9.10
2017-09-23T11:40:44.338Z,7.80
2017-09-23T11:41:44.339Z,8.80
2017-09-23T11:42:44.345Z,9.90
2017-09-23T11:43:44.347Z,9.60
2017-09-23T11:44:44.349Z,6.40
2017-09-23T11:45:44.352Z,8.20
2017-09-23T11:46:44.356Z,8.10
2017-09-23T11:47:44.360Z,7.20
2017-09-23T11:48:44.361Z,6.50
2017-09-23T11:49:44.366Z,5.90
2017-09-23T11:50:44.369Z,7.50
2017-09-23T11:51:44.371Z,7.60
2017-09-23T11:52:44.376Z,5.10
2017-09-23T11:53:44.378Z,5.40
2017-09-23T11:54:44.381Z,5.80
2017-09-23T11:55:44.384Z,5.50
2017-09-23T11:56:44.387Z,6.20
2017-09-23T11:57:44.390Z,9.30
2017-09-23T11:58:44.395Z,7.30
2017-09-23T11:59:44.403Z,6.90
2017-09-23T12:00:44.400Z,6.70
2017-09-23T12:01:44.404Z,13.60
2017-09-23T12:02:44.407Z,8.30
2017-09-23T12:03:44.411Z,7.90
2017-09-23T12:04:44.413Z,6.20
2017-09-23T12:05:44.416Z,13.80
2017-09-23T12:06:44.419Z,10.90
2017-09-23T12:07:44.423Z,7.00
2017-09-23T12:08:44.426Z,5.90
2017-09-23T12:09:44.428Z,8.10
2017-09-23T12:10:44.431Z,7.70
2017-09-23T12:11:44.436Z,12.20
2017-09-23T12:12:44.436Z,12.80
2017-09-23T12:13:44.441Z,6.00
2017-09-23T12:14:44.445Z,8.40
2017-09-23T12:15:44.447Z,5.60
2017-09-23T12:16:44.476Z,8.40
2017-09-23T12:17:44.452Z,7.60
2017-09-23T12:18:44.455Z,7.40
2017-09-23T12:19:44.457Z,10.10
2017-09-23T12:20:44.461Z,10.30
2017-09-23T12:21:44.463Z,6.10
2017-09-23T12:22:44.467Z,6.60
2017-09-23T12:23:44.470Z,6.40
2017-09-23T12:24:44.472Z,6.50
2017-09-23T12:25:44.476Z,5.30
2017-09-23T12:26:44.479Z,10.00
2017-09-23T12:27:44.483Z,5.30
2017-09-23T12:28:44.485Z,9.40
2017-09-23T12:29:44.488Z,7.90
2017-09-23T12:30:44.492Z,8.80
2017-09-23T12:31:44.495Z,6.00
2017-09-23T12:32:44.497Z,5.10
2017-09-23T12:33:44.500Z,6.80
2017-09-23T12:34:44.503Z,7.10
2017-09-23T12:35:44.506Z,8.90
2017-09-23T12:36:44.509Z,5.20
2017-09-23T12:37:44.513Z,7.00
2017-09-23T12:38:44.515Z,6.20
2017-09-23T12:39:44.520Z,9.50
2017-09-23T12:40:44.520Z,7.70
2017-09-23T12:41:44.525Z,6.50
2017-09-23T12:42:44.528Z,6.30
2017-09-23T12:43:44.531Z,10.10
2017-09-23T12:44:44.533Z,6.90
2017-09-23T12:45:44.537Z,7.60
2017-09-23T12:46:44.540Z,8.50
2017-09-23T12:47:44.541Z,11.20
2017-09-23T12:48:44.546Z,9.80
2017-09-23T12:49:44.548Z,7.40
2017-09-23T12:50:44.551Z,8.00
2017-09-23T12:51:44.556Z,6.10
2017-09-23T12:52:44.557Z,10.40
2017-09-23T12:53:44.562Z,8.40
2017-09-23T12:54:44.603Z,6.80
2017-09-23T12:55:44.567Z,6.50
2017-09-23T12:56:44.569Z,7.60
2017-09-23T12:57:44.572Z,7.30
2017-09-23T12:58:44.575Z,5.90
2017-09-23T12:59:44.576Z,10.10
2017-09-23T13:00:44.580Z,8.80
2017-09-23T13:01:44.583Z,7.90
2017-09-23T13:02:44.586Z,7.30
2017-09-23T13:03:44.589Z,6.30
2017-09-23T13:04:44.592Z,10.50
2017-09-23T13:05:44.594Z,6.70
2017-09-23T13:06:44.598Z,9.50
2017-09-23T13:07:44.599Z,8.50
2017-09-23T13:08:44.601Z,8.10
2017-09-23T13:09:44.603Z,5.40
2017-09-23T13:10:44.611Z,7.20
2017-09-23T13:11:44.611Z,6.40
2017-09-23T13:12:44.613Z,5.30
2017-09-23T13:13:44.615Z,7.10
2017-09-23T13:14:44.616Z,7.80
2017-09-23T13:15:44.622Z,6.70
2017-09-23T13:16:44.622Z,6.00
2017-09-23T13:17:44.625Z,5.50
2017-09-23T13:18:44.628Z,8.70
2017-09-23T13:19:44.630Z,9.50
2017-09-23T13:20:44.632Z,5.00
2017-09-23T13:21:44.636Z,5.90
2017-09-23T13:22:44.636Z,4.60
2017-09-23T13:23:44.639Z,5.40
2017-09-23T13:24:44.643Z,4.60
2017-09-23T13:25:44.643Z,7.70
2017-09-23T13:26:44.647Z,6.10
2017-09-23T13:27:44.648Z,4.90
2017-09-23T13:28:44.651Z,10.90
2017-09-23T13:29:44.687Z,5.40
2017-09-23T13:30:44.658Z,5.70
2017-09-23T13:31:44.663Z,5.80
2017-09-23T13:32:44.661Z,5.30
2017-09-23T13:33:44.663Z,5.20
2017-09-23T13:34:44.666Z,5.30
2017-09-23T13:35:44.669Z,8.50
2017-09-23T13:36:44.670Z,7.20
2017-09-23T13:37:44.673Z,5.20
2017-09-23T13:38:44.676Z,5.50
2017-09-23T13:39:44.680Z,4.50
2017-09-23T13:40:44.682Z,5.90
2017-09-23T13:41:44.685Z,5.60
2017-09-23T13:42:44.686Z,4.90
2017-09-23T13:43:44.690Z,5.70
2017-09-23T13:44:44.689Z,7.40
2017-09-23T13:45:44.692Z,8.00
2017-09-23T13:46:44.696Z,5.60
2017-09-23T13:47:44.704Z,5.80
2017-09-23T13:48:44.702Z,7.40
2017-09-23T13:49:44.703Z,8.20
2017-09-23T13:50:44.706Z,5.00